sensor_id;sensor_type;location;lat;lon;timestamp;P1;durP1;ratioP1;P2;durP2;ratioP2
74612;SDS011;63119;51.788;8.824;2023-06-24T00:01:16;6.93;;;3.75;;
74612;SDS011;63119;51.788;8.824;2023-06-24T00:03:41;9.23;;;3.63;;
74612;SDS011;63119;51.788;8.824;2023-06-24T00:06:11;6.45;;;3.70;;
74612;SDS011;63119;51.788;8.824;2023-06-24T00:08:40;8.20;;;3.85;;
74612;SDS011;63119;51.788;8.824;2023-06-24T00:11:05;11.20;;;3.80;;
74612;SDS011;63119;51.788;8.824;2023-06-24T00:13:30;9.20;;;3.80;;
74612;SDS011;63119;51.788;8.824;2023-06-24T00:15:55;6.60;;;3.40;;
74612;SDS011;63119;51.788;8.824;2023-06-24T00:18:21;9.27;;;4.00;;
74612;SDS011;63119;51.788;8.824;2023-06-24T00:20:49;6.28;;;3.78;;
74612;SDS011;63119;51.788;8.824;2023-06-24T00:23:14;5.80;;;3.75;;
74612;SDS011;63119;51.788;8.824;2023-06-24T00:25:49;12.45;;;4.43;;
74612;SDS011;63119;51.788;8.824;2023-06-24T00:28:15;6.07;;;4.22;;
74612;SDS011;63119;51.788;8.824;2023-06-24T00:30:40;9.07;;;3.70;;
74612;SDS011;63119;51.788;8.824;2023-06-24T00:33:05;6.10;;;3.10;;
74612;SDS011;63119;51.788;8.824;2023-06-24T00:35:34;9.65;;;4.35;;
74612;SDS011;63119;51.788;8.824;2023-06-24T00:37:59;7.10;;;3.40;;
74612;SDS011;63119;51.788;8.824;2023-06-24T00:40:24;4.73;;;3.50;;
74612;SDS011;63119;51.788;8.824;2023-06-24T00:42:49;6.63;;;3.60;;
74612;SDS011;63119;51.788;8.824;2023-06-24T00:45:15;7.93;;;3.40;;
74612;SDS011;63119;51.788;8.824;2023-06-24T00:47:42;5.68;;;3.65;;
74612;SDS011;63119;51.788;8.824;2023-06-24T00:50:08;5.93;;;3.60;;
74612;SDS011;63119;51.788;8.824;2023-06-24T00:52:37;4.97;;;3.65;;
74612;SDS011;63119;51.788;8.824;2023-06-24T00:55:07;8.48;;;3.45;;
74612;SDS011;63119;51.788;8.824;2023-06-24T00:57:32;5.15;;;3.42;;
74612;SDS011;63119;51.788;8.824;2023-06-24T00:59:57;8.47;;;3.40;;
74612;SDS011;63119;51.788;8.824;2023-06-24T01:02:24;9.65;;;3.25;;
74612;SDS011;63119;51.788;8.824;2023-06-24T01:04:52;7.47;;;3.35;;
74612;SDS011;63119;51.788;8.824;2023-06-24T01:07:18;9.80;;;3.97;;
74612;SDS011;63119;51.788;8.824;2023-06-24T01:09:43;6.80;;;3.28;;
74612;SDS011;63119;51.788;8.824;2023-06-24T01:12:09;6.85;;;3.60;;
74612;SDS011;63119;51.788;8.824;2023-06-24T01:14:35;6.68;;;3.67;;
74612;SDS011;63119;51.788;8.824;2023-06-24T01:17:03;5.75;;;3.47;;
74612;SDS011;63119;51.788;8.824;2023-06-24T01:19:44;12.05;;;3.20;;
74612;SDS011;63119;51.788;8.824;2023-06-24T01:28:34;7.22;;;3.50;;
74612;SDS011;63119;51.788;8.824;2023-06-24T01:31:29;5.85;;;3.80;;
74612;SDS011;63119;51.788;8.824;2023-06-24T01:36:37;6.35;;;3.42;;
74612;SDS011;63119;51.788;8.824;2023-06-24T01:39:06;9.30;;;3.53;;
74612;SDS011;63119;51.788;8.824;2023-06-24T01:41:34;9.82;;;3.30;;
74612;SDS011;63119;51.788;8.824;2023-06-24T01:44:12;9.50;;;3.40;;
74612;SDS011;63119;51.788;8.824;2023-06-24T01:46:38;7.30;;;3.70;;
74612;SDS011;63119;51.788;8.824;2023-06-24T01:49:06;8.35;;;3.47;;
74612;SDS011;63119;51.788;8.824;2023-06-24T01:51:32;7.60;;;4.07;;
74612;SDS011;63119;51.788;8.824;2023-06-24T01:54:02;9.48;;;3.63;;
74612;SDS011;63119;51.788;8.824;2023-06-24T01:56:30;7.70;;;3.08;;
74612;SDS011;63119;51.788;8.824;2023-06-24T01:58:58;7.57;;;3.67;;
74612;SDS011;63119;51.788;8.824;2023-06-24T02:01:27;9.88;;;4.20;;
74612;SDS011;63119;51.788;8.824;2023-06-24T02:03:53;8.35;;;3.22;;
74612;SDS011;63119;51.788;8.824;2023-06-24T02:06:20;9.15;;;4.07;;
74612;SDS011;63119;51.788;8.824;2023-06-24T02:08:47;9.45;;;3.58;;
74612;SDS011;63119;51.788;8.824;2023-06-24T02:11:15;8.13;;;3.58;;
74612;SDS011;63119;51.788;8.824;2023-06-24T02:13:42;6.78;;;3.90;;
74612;SDS011;63119;51.788;8.824;2023-06-24T02:16:08;5.18;;;3.28;;
74612;SDS011;63119;51.788;8.824;2023-06-24T02:18:35;7.22;;;4.00;;
74612;SDS011;63119;51.788;8.824;2023-06-24T02:23:28;11.07;;;4.00;;
74612;SDS011;63119;51.788;8.824;2023-06-24T02:25:54;8.75;;;3.67;;
74612;SDS011;63119;51.788;8.824;2023-06-24T02:28:21;6.15;;;3.65;;
74612;SDS011;63119;51.788;8.824;2023-06-24T02:30:47;5.72;;;3.35;;
74612;SDS011;63119;51.788;8.824;2023-06-24T02:33:14;8.80;;;3.53;;
74612;SDS011;63119;51.788;8.824;2023-06-24T02:35:39;8.20;;;3.90;;
74612;SDS011;63119;51.788;8.824;2023-06-24T02:38:06;7.15;;;3.40;;
74612;SDS011;63119;51.788;8.824;2023-06-24T02:40:32;7.80;;;3.90;;
74612;SDS011;63119;51.788;8.824;2023-06-24T02:42:57;5.03;;;3.40;;
74612;SDS011;63119;51.788;8.824;2023-06-24T02:45:23;6.97;;;3.15;;
74612;SDS011;63119;51.788;8.824;2023-06-24T02:47:49;7.50;;;4.15;;
74612;SDS011;63119;51.788;8.824;2023-06-24T02:50:15;6.82;;;3.35;;
74612;SDS011;63119;51.788;8.824;2023-06-24T02:52:41;8.05;;;4.00;;
74612;SDS011;63119;51.788;8.824;2023-06-24T02:55:07;6.88;;;4.53;;
74612;SDS011;63119;51.788;8.824;2023-06-24T02:57:34;10.75;;;3.50;;
74612;SDS011;63119;51.788;8.824;2023-06-24T03:00:01;8.75;;;3.55;;
74612;SDS011;63119;51.788;8.824;2023-06-24T03:02:30;7.18;;;4.28;;
74612;SDS011;63119;51.788;8.824;2023-06-24T03:04:56;10.57;;;4.10;;
74612;SDS011;63119;51.788;8.824;2023-06-24T03:07:23;10.35;;;4.93;;
74612;SDS011;63119;51.788;8.824;2023-06-24T03:09:49;10.20;;;4.28;;
74612;SDS011;63119;51.788;8.824;2023-06-24T03:12:15;9.13;;;3.70;;
74612;SDS011;63119;51.788;8.824;2023-06-24T03:14:40;8.60;;;3.83;;
74612;SDS011;63119;51.788;8.824;2023-06-24T03:17:06;6.20;;;3.97;;
74612;SDS011;63119;51.788;8.824;2023-06-24T03:19:31;9.32;;;4.38;;
74612;SDS011;63119;51.788;8.824;2023-06-24T03:21:56;8.33;;;4.07;;
74612;SDS011;63119;51.788;8.824;2023-06-24T03:24:22;11.23;;;4.23;;
74612;SDS011;63119;51.788;8.824;2023-06-24T03:26:47;11.40;;;4.65;;
74612;SDS011;63119;51.788;8.824;2023-06-24T03:29:12;7.07;;;4.00;;
74612;SDS011;63119;51.788;8.824;2023-06-24T03:31:38;6.95;;;4.55;;
74612;SDS011;63119;51.788;8.824;2023-06-24T03:34:08;8.93;;;4.05;;
74612;SDS011;63119;51.788;8.824;2023-06-24T03:36:34;8.88;;;5.03;;
74612;SDS011;63119;51.788;8.824;2023-06-24T03:38:59;14.13;;;4.40;;
74612;SDS011;63119;51.788;8.824;2023-06-24T03:41:25;7.10;;;3.93;;
74612;SDS011;63119;51.788;8.824;2023-06-24T03:43:51;8.95;;;3.88;;
74612;SDS011;63119;51.788;8.824;2023-06-24T03:46:16;6.87;;;4.17;;
74612;SDS011;63119;51.788;8.824;2023-06-24T03:48:42;5.87;;;3.87;;
74612;SDS011;63119;51.788;8.824;2023-06-24T03:51:08;8.88;;;3.90;;
74612;SDS011;63119;51.788;8.824;2023-06-24T03:53:33;5.90;;;3.80;;
74612;SDS011;63119;51.788;8.824;2023-06-24T03:55:58;7.40;;;4.00;;
74612;SDS011;63119;51.788;8.824;2023-06-24T03:58:24;8.30;;;4.70;;
74612;SDS011;63119;51.788;8.824;2023-06-24T04:00:49;9.40;;;4.27;;
74612;SDS011;63119;51.788;8.824;2023-06-24T04:03:15;8.87;;;4.20;;
74612;SDS011;63119;51.788;8.824;2023-06-24T04:05:43;7.25;;;3.92;;
74612;SDS011;63119;51.788;8.824;2023-06-24T04:08:09;9.93;;;4.28;;
74612;SDS011;63119;51.788;8.824;2023-06-24T04:10:34;7.73;;;4.23;;
74612;SDS011;63119;51.788;8.824;2023-06-24T04:12:59;7.10;;;4.33;;
74612;SDS011;63119;51.788;8.824;2023-06-24T04:15:24;8.30;;;4.20;;
74612;SDS011;63119;51.788;8.824;2023-06-24T04:17:50;10.33;;;4.77;;
74612;SDS011;63119;51.788;8.824;2023-06-24T04:20:15;7.93;;;4.07;;
74612;SDS011;63119;51.788;8.824;2023-06-24T04:22:41;6.15;;;4.43;;
74612;SDS011;63119;51.788;8.824;2023-06-24T04:25:06;6.95;;;3.75;;
74612;SDS011;63119;51.788;8.824;2023-06-24T04:27:32;7.15;;;4.63;;
74612;SDS011;63119;51.788;8.824;2023-06-24T04:29:58;11.25;;;4.15;;
74612;SDS011;63119;51.788;8.824;2023-06-24T04:32:27;8.05;;;3.55;;
74612;SDS011;63119;51.788;8.824;2023-06-24T04:34:52;9.67;;;4.00;;
74612;SDS011;63119;51.788;8.824;2023-06-24T04:37:18;7.38;;;3.97;;
74612;SDS011;63119;51.788;8.824;2023-06-24T04:39:43;8.97;;;4.50;;
74612;SDS011;63119;51.788;8.824;2023-06-24T04:42:09;8.57;;;3.97;;
74612;SDS011;63119;51.788;8.824;2023-06-24T04:44:35;10.65;;;4.15;;
74612;SDS011;63119;51.788;8.824;2023-06-24T04:47:00;6.82;;;3.90;;
74612;SDS011;63119;51.788;8.824;2023-06-24T04:49:25;6.77;;;4.03;;
74612;SDS011;63119;51.788;8.824;2023-06-24T04:51:51;7.93;;;3.70;;
74612;SDS011;63119;51.788;8.824;2023-06-24T04:54:16;7.47;;;3.83;;
74612;SDS011;63119;51.788;8.824;2023-06-24T04:56:42;7.13;;;4.38;;
74612;SDS011;63119;51.788;8.824;2023-06-24T04:59:08;7.35;;;4.30;;
74612;SDS011;63119;51.788;8.824;2023-06-24T05:01:33;8.90;;;4.10;;
74612;SDS011;63119;51.788;8.824;2023-06-24T05:03:58;9.60;;;4.60;;
74612;SDS011;63119;51.788;8.824;2023-06-24T05:06:23;6.63;;;4.10;;
74612;SDS011;63119;51.788;8.824;2023-06-24T05:08:49;6.97;;;4.07;;
74612;SDS011;63119;51.788;8.824;2023-06-24T05:11:14;6.70;;;4.03;;
74612;SDS011;63119;51.788;8.824;2023-06-24T05:13:39;7.23;;;3.83;;
74612;SDS011;63119;51.788;8.824;2023-06-24T05:16:05;9.68;;;4.05;;
74612;SDS011;63119;51.788;8.824;2023-06-24T05:18:30;9.10;;;4.27;;
74612;SDS011;63119;51.788;8.824;2023-06-24T05:20:55;11.80;;;4.78;;
74612;SDS011;63119;51.788;8.824;2023-06-24T05:23:21;9.43;;;4.15;;
74612;SDS011;63119;51.788;8.824;2023-06-24T05:25:46;7.83;;;4.03;;
74612;SDS011;63119;51.788;8.824;2023-06-24T05:28:11;9.20;;;5.50;;
74612;SDS011;63119;51.788;8.824;2023-06-24T05:30:37;7.67;;;4.47;;
74612;SDS011;63119;51.788;8.824;2023-06-24T05:33:02;10.20;;;4.50;;
74612;SDS011;63119;51.788;8.824;2023-06-24T05:35:28;8.53;;;4.73;;
74612;SDS011;63119;51.788;8.824;2023-06-24T05:37:53;7.18;;;4.38;;
74612;SDS011;63119;51.788;8.824;2023-06-24T05:40:18;6.73;;;4.43;;
74612;SDS011;63119;51.788;8.824;2023-06-24T05:42:44;7.93;;;4.30;;
74612;SDS011;63119;51.788;8.824;2023-06-24T05:45:09;8.87;;;4.43;;
74612;SDS011;63119;51.788;8.824;2023-06-24T05:47:34;7.30;;;4.82;;
74612;SDS011;63119;51.788;8.824;2023-06-24T05:50:00;9.10;;;4.43;;
74612;SDS011;63119;51.788;8.824;2023-06-24T05:52:25;8.13;;;3.90;;
74612;SDS011;63119;51.788;8.824;2023-06-24T05:54:50;8.27;;;4.63;;
74612;SDS011;63119;51.788;8.824;2023-06-24T05:57:15;9.30;;;4.93;;
74612;SDS011;63119;51.788;8.824;2023-06-24T05:59:41;7.45;;;4.78;;
74612;SDS011;63119;51.788;8.824;2023-06-24T06:02:06;7.93;;;4.53;;
74612;SDS011;63119;51.788;8.824;2023-06-24T06:04:32;11.37;;;5.13;;
74612;SDS011;63119;51.788;8.824;2023-06-24T06:06:57;9.18;;;4.45;;
74612;SDS011;63119;51.788;8.824;2023-06-24T06:09:22;21.17;;;6.53;;
74612;SDS011;63119;51.788;8.824;2023-06-24T06:11:47;7.23;;;4.77;;
74612;SDS011;63119;51.788;8.824;2023-06-24T06:14:13;11.32;;;5.32;;
74612;SDS011;63119;51.788;8.824;2023-06-24T06:16:39;8.50;;;5.53;;
74612;SDS011;63119;51.788;8.824;2023-06-24T06:19:04;9.68;;;5.22;;
74612;SDS011;63119;51.788;8.824;2023-06-24T06:21:29;7.40;;;5.30;;
74612;SDS011;63119;51.788;8.824;2023-06-24T06:23:55;8.67;;;4.90;;
74612;SDS011;63119;51.788;8.824;2023-06-24T06:26:20;11.77;;;5.50;;
74612;SDS011;63119;51.788;8.824;2023-06-24T06:28:46;11.50;;;6.15;;
74612;SDS011;63119;51.788;8.824;2023-06-24T06:31:12;10.95;;;5.28;;
74612;SDS011;63119;51.788;8.824;2023-06-24T06:33:37;13.73;;;6.05;;
74612;SDS011;63119;51.788;8.824;2023-06-24T06:36:03;8.95;;;5.85;;
74612;SDS011;63119;51.788;8.824;2023-06-24T06:38:28;8.75;;;5.32;;
74612;SDS011;63119;51.788;8.824;2023-06-24T06:40:53;7.60;;;5.27;;
74612;SDS011;63119;51.788;8.824;2023-06-24T06:43:19;9.47;;;5.93;;
74612;SDS011;63119;51.788;8.824;2023-06-24T06:45:44;8.50;;;5.93;;
74612;SDS011;63119;51.788;8.824;2023-06-24T06:48:09;9.80;;;5.70;;
74612;SDS011;63119;51.788;8.824;2023-06-24T06:50:35;8.60;;;5.20;;
74612;SDS011;63119;51.788;8.824;2023-06-24T06:53:00;7.93;;;5.55;;
74612;SDS011;63119;51.788;8.824;2023-06-24T06:55:26;10.93;;;6.03;;
74612;SDS011;63119;51.788;8.824;2023-06-24T06:57:52;8.98;;;5.25;;
74612;SDS011;63119;51.788;8.824;2023-06-24T07:00:17;8.73;;;5.05;;
74612;SDS011;63119;51.788;8.824;2023-06-24T07:02:43;11.50;;;5.68;;
74612;SDS011;63119;51.788;8.824;2023-06-24T07:05:08;10.00;;;5.97;;
74612;SDS011;63119;51.788;8.824;2023-06-24T07:07:34;9.30;;;5.07;;
74612;SDS011;63119;51.788;8.824;2023-06-24T07:10:01;10.65;;;6.18;;
74612;SDS011;63119;51.788;8.824;2023-06-24T07:12:26;6.27;;;4.73;;
74612;SDS011;63119;51.788;8.824;2023-06-24T07:14:51;10.23;;;4.90;;
74612;SDS011;63119;51.788;8.824;2023-06-24T07:17:17;9.67;;;5.00;;
74612;SDS011;63119;51.788;8.824;2023-06-24T07:19:42;7.93;;;5.10;;
74612;SDS011;63119;51.788;8.824;2023-06-24T07:22:07;10.73;;;5.30;;
74612;SDS011;63119;51.788;8.824;2023-06-24T07:24:32;8.70;;;4.90;;
74612;SDS011;63119;51.788;8.824;2023-06-24T07:26:58;7.87;;;5.10;;
74612;SDS011;63119;51.788;8.824;2023-06-24T07:29:23;9.70;;;5.50;;
74612;SDS011;63119;51.788;8.824;2023-06-24T07:31:48;11.37;;;4.87;;
74612;SDS011;63119;51.788;8.824;2023-06-24T07:34:13;6.83;;;4.90;;
74612;SDS011;63119;51.788;8.824;2023-06-24T07:36:39;9.10;;;4.20;;
74612;SDS011;63119;51.788;8.824;2023-06-24T07:39:04;8.63;;;4.70;;
74612;SDS011;63119;51.788;8.824;2023-06-24T07:41:30;10.18;;;4.72;;
74612;SDS011;63119;51.788;8.824;2023-06-24T07:43:57;8.35;;;4.88;;
74612;SDS011;63119;51.788;8.824;2023-06-24T07:46:22;6.20;;;4.93;;
74612;SDS011;63119;51.788;8.824;2023-06-24T07:48:47;5.67;;;3.63;;
74612;SDS011;63119;51.788;8.824;2023-06-24T07:51:12;8.60;;;4.30;;
74612;SDS011;63119;51.788;8.824;2023-06-24T07:53:38;5.80;;;4.00;;
74612;SDS011;63119;51.788;8.824;2023-06-24T07:56:03;6.47;;;4.07;;
74612;SDS011;63119;51.788;8.824;2023-06-24T07:58:28;7.68;;;4.57;;
74612;SDS011;63119;51.788;8.824;2023-06-24T08:00:53;5.57;;;3.93;;
74612;SDS011;63119;51.788;8.824;2023-06-24T08:03:19;6.50;;;3.30;;
74612;SDS011;63119;51.788;8.824;2023-06-24T08:05:44;6.10;;;3.40;;
74612;SDS011;63119;51.788;8.824;2023-06-24T08:08:09;8.90;;;3.70;;
74612;SDS011;63119;51.788;8.824;2023-06-24T08:10:34;6.33;;;2.63;;
74612;SDS011;63119;51.788;8.824;2023-06-24T08:13:00;4.90;;;2.67;;
74612;SDS011;63119;51.788;8.824;2023-06-24T08:15:25;7.05;;;3.40;;
74612;SDS011;63119;51.788;8.824;2023-06-24T08:17:54;4.32;;;3.00;;
74612;SDS011;63119;51.788;8.824;2023-06-24T08:20:23;4.78;;;3.42;;
74612;SDS011;63119;51.788;8.824;2023-06-24T08:22:49;5.70;;;3.25;;
74612;SDS011;63119;51.788;8.824;2023-06-24T08:25:14;7.85;;;4.07;;
74612;SDS011;63119;51.788;8.824;2023-06-24T08:27:40;4.55;;;3.20;;
74612;SDS011;63119;51.788;8.824;2023-06-24T08:30:05;6.43;;;4.03;;
74612;SDS011;63119;51.788;8.824;2023-06-24T08:32:31;9.15;;;4.07;;
74612;SDS011;63119;51.788;8.824;2023-06-24T08:34:57;6.63;;;3.83;;
74612;SDS011;63119;51.788;8.824;2023-06-24T08:37:22;6.40;;;3.90;;
74612;SDS011;63119;51.788;8.824;2023-06-24T08:39:47;6.90;;;3.60;;
74612;SDS011;63119;51.788;8.824;2023-06-24T08:42:13;6.50;;;3.70;;
74612;SDS011;63119;51.788;8.824;2023-06-24T08:44:38;6.90;;;3.43;;
74612;SDS011;63119;51.788;8.824;2023-06-24T08:47:03;5.93;;;3.93;;
74612;SDS011;63119;51.788;8.824;2023-06-24T08:49:30;6.18;;;4.00;;
74612;SDS011;63119;51.788;8.824;2023-06-24T08:54:28;5.15;;;3.70;;
74612;SDS011;63119;51.788;8.824;2023-06-24T08:56:57;5.88;;;4.00;;
74612;SDS011;63119;51.788;8.824;2023-06-24T08:59:22;5.28;;;3.55;;
74612;SDS011;63119;51.788;8.824;2023-06-24T09:01:48;5.15;;;3.28;;
74612;SDS011;63119;51.788;8.824;2023-06-24T09:04:15;5.97;;;3.83;;
74612;SDS011;63119;51.788;8.824;2023-06-24T09:06:40;5.45;;;3.88;;
74612;SDS011;63119;51.788;8.824;2023-06-24T09:09:16;5.85;;;3.40;;
74612;SDS011;63119;51.788;8.824;2023-06-24T09:11:42;6.18;;;3.90;;
74612;SDS011;63119;51.788;8.824;2023-06-24T09:14:16;8.07;;;3.65;;
74612;SDS011;63119;51.788;8.824;2023-06-24T09:16:41;5.20;;;2.97;;
74612;SDS011;63119;51.788;8.824;2023-06-24T09:19:06;5.47;;;2.97;;
74612;SDS011;63119;51.788;8.824;2023-06-24T09:21:31;5.13;;;3.10;;
74612;SDS011;63119;51.788;8.824;2023-06-24T09:23:57;4.87;;;2.50;;
74612;SDS011;63119;51.788;8.824;2023-06-24T09:26:26;6.40;;;3.55;;
74612;SDS011;63119;51.788;8.824;2023-06-24T09:28:54;5.30;;;3.38;;
74612;SDS011;63119;51.788;8.824;2023-06-24T09:31:20;5.37;;;3.33;;
74612;SDS011;63119;51.788;8.824;2023-06-24T09:33:46;6.57;;;3.28;;
74612;SDS011;63119;51.788;8.824;2023-06-24T09:36:12;6.13;;;3.70;;
74612;SDS011;63119;51.788;8.824;2023-06-24T09:38:39;5.55;;;3.10;;
74612;SDS011;63119;51.788;8.824;2023-06-24T09:41:06;5.43;;;3.00;;
74612;SDS011;63119;51.788;8.824;2023-06-24T09:43:35;8.30;;;3.35;;
74612;SDS011;63119;51.788;8.824;2023-06-24T09:46:02;6.00;;;3.15;;
74612;SDS011;63119;51.788;8.824;2023-06-24T09:48:28;6.80;;;3.40;;
74612;SDS011;63119;51.788;8.824;2023-06-24T09:50:58;6.80;;;3.72;;
74612;SDS011;63119;51.788;8.824;2023-06-24T09:53:25;6.95;;;3.30;;
74612;SDS011;63119;51.788;8.824;2023-06-24T09:55:55;7.03;;;3.70;;
74612;SDS011;63119;51.788;8.824;2023-06-24T09:58:21;5.03;;;3.30;;
74612;SDS011;63119;51.788;8.824;2023-06-24T10:00:47;8.10;;;3.70;;
74612;SDS011;63119;51.788;8.824;2023-06-24T10:03:14;7.05;;;4.00;;
74612;SDS011;63119;51.788;8.824;2023-06-24T10:05:39;4.37;;;3.07;;
74612;SDS011;63119;51.788;8.824;2023-06-24T10:08:05;6.13;;;3.70;;
74612;SDS011;63119;51.788;8.824;2023-06-24T10:10:31;7.38;;;3.85;;
74612;SDS011;63119;51.788;8.824;2023-06-24T10:12:57;6.43;;;3.83;;
74612;SDS011;63119;51.788;8.824;2023-06-24T10:15:22;7.82;;;3.90;;
74612;SDS011;63119;51.788;8.824;2023-06-24T10:17:50;5.68;;;4.57;;
74612;SDS011;63119;51.788;8.824;2023-06-24T10:22:49;7.30;;;3.53;;
74612;SDS011;63119;51.788;8.824;2023-06-24T10:25:16;6.90;;;4.18;;
74612;SDS011;63119;51.788;8.824;2023-06-24T10:27:41;6.83;;;3.67;;
74612;SDS011;63119;51.788;8.824;2023-06-24T10:30:07;6.68;;;3.78;;
74612;SDS011;63119;51.788;8.824;2023-06-24T10:32:39;5.40;;;3.45;;
74612;SDS011;63119;51.788;8.824;2023-06-24T10:35:29;7.60;;;3.80;;
74612;SDS011;63119;51.788;8.824;2023-06-24T10:40:35;7.20;;;4.40;;
74612;SDS011;63119;51.788;8.824;2023-06-24T10:43:22;7.38;;;4.55;;
74612;SDS011;63119;51.788;8.824;2023-06-24T10:45:55;6.90;;;4.00;;
74612;SDS011;63119;51.788;8.824;2023-06-24T10:48:22;9.57;;;4.47;;
74612;SDS011;63119;51.788;8.824;2023-06-24T10:50:47;11.63;;;4.82;;
74612;SDS011;63119;51.788;8.824;2023-06-24T10:53:14;6.18;;;3.83;;
74612;SDS011;63119;51.788;8.824;2023-06-24T10:55:40;5.88;;;3.58;;
74612;SDS011;63119;51.788;8.824;2023-06-24T10:58:08;6.25;;;3.85;;
74612;SDS011;63119;51.788;8.824;2023-06-24T11:00:34;8.30;;;4.25;;
74612;SDS011;63119;51.788;8.824;2023-06-24T11:03:09;5.63;;;3.93;;
74612;SDS011;63119;51.788;8.824;2023-06-24T11:05:42;5.70;;;3.38;;
74612;SDS011;63119;51.788;8.824;2023-06-24T11:08:09;6.00;;;3.80;;
74612;SDS011;63119;51.788;8.824;2023-06-24T11:10:44;6.40;;;4.03;;
74612;SDS011;63119;51.788;8.824;2023-06-24T11:13:11;9.30;;;4.50;;
74612;SDS011;63119;51.788;8.824;2023-06-24T11:15:37;6.03;;;3.80;;
74612;SDS011;63119;51.788;8.824;2023-06-24T11:18:04;7.63;;;4.45;;
74612;SDS011;63119;51.788;8.824;2023-06-24T11:20:29;4.87;;;3.40;;
74612;SDS011;63119;51.788;8.824;2023-06-24T11:22:55;9.02;;;4.53;;
74612;SDS011;63119;51.788;8.824;2023-06-24T11:25:21;4.80;;;3.55;;
74612;SDS011;63119;51.788;8.824;2023-06-24T11:27:46;7.22;;;3.90;;
74612;SDS011;63119;51.788;8.824;2023-06-24T11:30:12;7.47;;;3.93;;
74612;SDS011;63119;51.788;8.824;2023-06-24T11:32:38;8.27;;;5.13;;
74612;SDS011;63119;51.788;8.824;2023-06-24T11:35:08;6.00;;;3.90;;
74612;SDS011;63119;51.788;8.824;2023-06-24T11:37:34;4.93;;;3.25;;
74612;SDS011;63119;51.788;8.824;2023-06-24T11:40:00;5.82;;;3.67;;
74612;SDS011;63119;51.788;8.824;2023-06-24T11:42:30;5.40;;;3.40;;
74612;SDS011;63119;51.788;8.824;2023-06-24T11:44:59;8.25;;;3.80;;
74612;SDS011;63119;51.788;8.824;2023-06-24T11:47:26;7.07;;;3.88;;
74612;SDS011;63119;51.788;8.824;2023-06-24T11:49:52;7.60;;;3.87;;
74612;SDS011;63119;51.788;8.824;2023-06-24T11:52:27;6.18;;;3.75;;
74612;SDS011;63119;51.788;8.824;2023-06-24T11:54:59;7.45;;;3.80;;
74612;SDS011;63119;51.788;8.824;2023-06-24T11:57:46;6.23;;;3.60;;
74612;SDS011;63119;51.788;8.824;2023-06-24T12:00:19;5.57;;;3.58;;
74612;SDS011;63119;51.788;8.824;2023-06-24T12:02:58;6.75;;;3.40;;
74612;SDS011;63119;51.788;8.824;2023-06-24T12:05:32;5.78;;;3.78;;
74612;SDS011;63119;51.788;8.824;2023-06-24T12:08:02;6.50;;;3.45;;
74612;SDS011;63119;51.788;8.824;2023-06-24T12:10:36;5.65;;;3.45;;
74612;SDS011;63119;51.788;8.824;2023-06-24T12:15:33;6.05;;;3.60;;
74612;SDS011;63119;51.788;8.824;2023-06-24T12:17:58;4.57;;;3.40;;
74612;SDS011;63119;51.788;8.824;2023-06-24T12:20:24;4.97;;;3.30;;
74612;SDS011;63119;51.788;8.824;2023-06-24T12:22:50;6.00;;;3.33;;
74612;SDS011;63119;51.788;8.824;2023-06-24T12:25:16;7.23;;;3.97;;
74612;SDS011;63119;51.788;8.824;2023-06-24T12:27:42;6.38;;;3.90;;
74612;SDS011;63119;51.788;8.824;2023-06-24T12:30:09;6.10;;;4.03;;
74612;SDS011;63119;51.788;8.824;2023-06-24T12:32:35;5.22;;;4.18;;
74612;SDS011;63119;51.788;8.824;2023-06-24T12:35:00;7.63;;;3.60;;
74612;SDS011;63119;51.788;8.824;2023-06-24T12:37:33;5.85;;;3.60;;
74612;SDS011;63119;51.788;8.824;2023-06-24T12:39:59;5.28;;;3.55;;
74612;SDS011;63119;51.788;8.824;2023-06-24T12:42:25;4.15;;;3.17;;
74612;SDS011;63119;51.788;8.824;2023-06-24T12:44:51;6.00;;;3.58;;
74612;SDS011;63119;51.788;8.824;2023-06-24T12:47:16;7.27;;;3.57;;
74612;SDS011;63119;51.788;8.824;2023-06-24T12:49:41;5.10;;;3.10;;
74612;SDS011;63119;51.788;8.824;2023-06-24T12:52:06;5.10;;;3.33;;
74612;SDS011;63119;51.788;8.824;2023-06-24T12:54:32;4.87;;;3.30;;
74612;SDS011;63119;51.788;8.824;2023-06-24T12:56:57;6.57;;;3.50;;
74612;SDS011;63119;51.788;8.824;2023-06-24T12:59:22;6.47;;;3.60;;
74612;SDS011;63119;51.788;8.824;2023-06-24T13:01:48;7.00;;;3.63;;
74612;SDS011;63119;51.788;8.824;2023-06-24T13:04:13;6.67;;;3.60;;
74612;SDS011;63119;51.788;8.824;2023-06-24T13:06:38;6.05;;;3.40;;
74612;SDS011;63119;51.788;8.824;2023-06-24T13:09:04;5.57;;;3.10;;
74612;SDS011;63119;51.788;8.824;2023-06-24T13:11:29;5.00;;;2.90;;
74612;SDS011;63119;51.788;8.824;2023-06-24T13:13:55;8.77;;;3.70;;
74612;SDS011;63119;51.788;8.824;2023-06-24T13:16:20;4.90;;;3.30;;
74612;SDS011;63119;51.788;8.824;2023-06-24T13:18:45;4.35;;;2.90;;
74612;SDS011;63119;51.788;8.824;2023-06-24T13:21:11;6.67;;;3.33;;
74612;SDS011;63119;51.788;8.824;2023-06-24T13:23:36;5.43;;;3.57;;
74612;SDS011;63119;51.788;8.824;2023-06-24T13:26:03;4.28;;;2.90;;
74612;SDS011;63119;51.788;8.824;2023-06-24T13:28:28;7.93;;;3.17;;
74612;SDS011;63119;51.788;8.824;2023-06-24T13:30:54;4.67;;;3.03;;
74612;SDS011;63119;51.788;8.824;2023-06-24T13:33:20;4.72;;;3.13;;
74612;SDS011;63119;51.788;8.824;2023-06-24T13:35:45;5.07;;;3.40;;
74612;SDS011;63119;51.788;8.824;2023-06-24T13:38:11;6.77;;;3.47;;
74612;SDS011;63119;51.788;8.824;2023-06-24T13:40:37;5.13;;;3.55;;
74612;SDS011;63119;51.788;8.824;2023-06-24T13:43:02;5.25;;;3.45;;
74612;SDS011;63119;51.788;8.824;2023-06-24T13:45:28;14.25;;;4.78;;
74612;SDS011;63119;51.788;8.824;2023-06-24T13:47:53;6.00;;;3.43;;
74612;SDS011;63119;51.788;8.824;2023-06-24T13:50:19;5.35;;;3.17;;
74612;SDS011;63119;51.788;8.824;2023-06-24T13:52:45;4.90;;;3.23;;
74612;SDS011;63119;51.788;8.824;2023-06-24T13:55:11;5.93;;;3.60;;
74612;SDS011;63119;51.788;8.824;2023-06-24T13:57:36;7.30;;;3.43;;
74612;SDS011;63119;51.788;8.824;2023-06-24T14:00:02;4.40;;;3.40;;
74612;SDS011;63119;51.788;8.824;2023-06-24T14:02:28;5.30;;;3.25;;
74612;SDS011;63119;51.788;8.824;2023-06-24T14:04:53;5.43;;;3.10;;
74612;SDS011;63119;51.788;8.824;2023-06-24T14:07:19;4.90;;;3.43;;
74612;SDS011;63119;51.788;8.824;2023-06-24T14:09:44;5.38;;;3.60;;
74612;SDS011;63119;51.788;8.824;2023-06-24T14:12:09;5.67;;;3.47;;
74612;SDS011;63119;51.788;8.824;2023-06-24T14:14:35;5.95;;;3.50;;
74612;SDS011;63119;51.788;8.824;2023-06-24T14:17:01;8.27;;;3.90;;
74612;SDS011;63119;51.788;8.824;2023-06-24T14:19:27;4.53;;;3.38;;
74612;SDS011;63119;51.788;8.824;2023-06-24T14:21:52;4.83;;;3.10;;
74612;SDS011;63119;51.788;8.824;2023-06-24T14:24:17;4.53;;;3.30;;
74612;SDS011;63119;51.788;8.824;2023-06-24T14:26:43;5.37;;;3.00;;
74612;SDS011;63119;51.788;8.824;2023-06-24T14:29:08;7.47;;;2.92;;
74612;SDS011;63119;51.788;8.824;2023-06-24T14:31:34;4.13;;;2.83;;
74612;SDS011;63119;51.788;8.824;2023-06-24T14:33:59;11.67;;;4.37;;
74612;SDS011;63119;51.788;8.824;2023-06-24T14:36:24;4.77;;;3.73;;
74612;SDS011;63119;51.788;8.824;2023-06-24T14:38:50;8.20;;;3.50;;
74612;SDS011;63119;51.788;8.824;2023-06-24T14:41:15;4.83;;;3.40;;
74612;SDS011;63119;51.788;8.824;2023-06-24T14:43:40;4.50;;;3.60;;
74612;SDS011;63119;51.788;8.824;2023-06-24T14:46:05;5.00;;;3.57;;
74612;SDS011;63119;51.788;8.824;2023-06-24T14:48:30;5.37;;;3.30;;
74612;SDS011;63119;51.788;8.824;2023-06-24T14:50:56;4.70;;;3.30;;
74612;SDS011;63119;51.788;8.824;2023-06-24T14:53:21;6.13;;;3.47;;
74612;SDS011;63119;51.788;8.824;2023-06-24T14:55:46;4.90;;;3.60;;
74612;SDS011;63119;51.788;8.824;2023-06-24T14:58:11;5.73;;;3.60;;
74612;SDS011;63119;51.788;8.824;2023-06-24T15:00:37;6.82;;;3.40;;
74612;SDS011;63119;51.788;8.824;2023-06-24T15:03:02;6.30;;;4.00;;